createdAt,value
2019-06-07T00:01:32.898Z,10.70
2019-06-07T00:04:03.325Z,9.23
2019-06-07T00:06:34.118Z,9.73
2019-06-07T00:09:08.138Z,9.93
2019-06-07T00:11:37.202Z,9.23
2019-06-07T00:14:08.626Z,10.67
2019-06-07T00:16:39.453Z,10.13
2019-06-07T00:19:11.967Z,9.83
2019-06-07T00:22:13.578Z,10.63
2019-06-07T00:24:16.228Z,10.00
2019-06-07T00:26:57.619Z,9.37
2019-06-07T00:29:21.763Z,11.13
2019-06-07T00:31:51.168Z,10.67
2019-06-07T00:34:22.926Z,11.03
2019-06-07T00:36:54.513Z,11.77
2019-06-07T00:39:26.135Z,10.50
2019-06-07T00:41:56.945Z,11.23
2019-06-07T00:44:27.456Z,11.90
2019-06-07T00:46:57.773Z,11.27
2019-06-07T00:49:40.390Z,10.60
2019-06-07T00:52:01.419Z,11.33
2019-06-07T00:54:32.092Z,11.53
2019-06-07T00:57:02.402Z,10.63
2019-06-07T00:59:32.710Z,10.83
2019-06-07T01:02:03.530Z,11.07
2019-06-07T01:04:35.546Z,10.30
2019-06-07T01:07:06.183Z,11.13
2019-06-07T01:09:37.944Z,10.83
2019-06-07T01:12:08.381Z,11.10
2019-06-07T01:14:38.789Z,9.97
2019-06-07T01:17:39.220Z,10.17
2019-06-07T01:19:58.065Z,10.60
2019-06-07T01:22:29.701Z,9.73
2019-06-07T01:25:00.009Z,10.37
2019-06-07T01:27:30.324Z,11.00
2019-06-07T01:30:01.072Z,10.33
2019-06-07T01:32:33.177Z,10.60
2019-06-07T01:35:03.478Z,10.60
2019-06-07T01:37:35.274Z,11.27
2019-06-07T01:40:06.528Z,11.63
2019-06-07T01:42:36.818Z,13.70
2019-06-07T01:45:08.058Z,12.50
2019-06-07T01:47:38.714Z,11.63
2019-06-07T01:50:09.765Z,12.23
2019-06-07T01:52:40.184Z,12.27
2019-06-07T01:55:10.846Z,11.87
2019-06-07T01:57:47.958Z,12.50
2019-06-07T02:00:15.623Z,14.30
2019-06-07T02:02:45.911Z,12.50
2019-06-07T02:05:19.144Z,13.00
2019-06-07T02:07:48.850Z,13.90
2019-06-07T02:10:22.320Z,13.57
2019-06-07T02:12:51.728Z,13.03
2019-06-07T02:15:25.044Z,12.83
2019-06-07T02:17:54.437Z,12.83
2019-06-07T02:20:27.235Z,11.37
2019-06-07T02:22:57.138Z,11.93
2019-06-07T02:25:41.949Z,10.73
2019-06-07T02:28:25.942Z,11.23
2019-06-07T02:30:47.555Z,10.97
2019-06-07T02:33:04.124Z,12.43
2019-06-07T02:35:40.360Z,12.47
2019-06-07T02:38:06.894Z,13.37
2019-06-07T02:40:37.712Z,12.93
2019-06-07T02:43:08.441Z,12.37
2019-06-07T02:45:43.455Z,14.33
2019-06-07T02:48:10.949Z,12.80
2019-06-07T02:50:42.045Z,14.37
2019-06-07T02:53:12.554Z,12.97
2019-06-07T02:56:32.845Z,13.30
2019-06-07T02:58:15.222Z,14.13
2019-06-07T03:01:07.063Z,13.73
2019-06-07T03:03:22.357Z,14.10
2019-06-07T03:05:52.624Z,13.90
2019-06-07T03:08:22.944Z,15.90
2019-06-07T03:10:53.531Z,17.27
2019-06-07T03:13:24.200Z,16.43
2019-06-07T03:15:56.449Z,16.17
2019-06-07T03:18:45.117Z,17.20
2019-06-07T03:21:19.637Z,19.03
2019-06-07T03:23:51.471Z,23.07
2019-06-07T03:26:23.953Z,25.60
2019-06-07T03:28:55.897Z,23.37
2019-06-07T03:31:28.509Z,22.83
2019-06-07T03:33:59.131Z,21.23
2019-06-07T03:36:29.692Z,19.57
2019-06-07T03:39:01.281Z,17.90
2019-06-07T03:41:42.007Z,17.47
2019-06-07T03:44:05.047Z,18.50
2019-06-07T03:46:39.033Z,18.57
2019-06-07T03:49:09.257Z,17.23
2019-06-07T03:51:40.937Z,17.43
2019-06-07T03:54:11.699Z,17.23
2019-06-07T03:56:42.353Z,16.63
2019-06-07T03:59:12.638Z,16.53
2019-06-07T04:01:42.944Z,16.87
2019-06-07T04:04:14.102Z,17.07
2019-06-07T04:06:44.379Z,16.27
2019-06-07T04:09:14.665Z,14.43
2019-06-07T04:11:45.377Z,15.00
2019-06-07T04:14:15.932Z,14.70
2019-06-07T04:16:46.321Z,16.17
2019-06-07T04:19:16.972Z,16.40
2019-06-07T04:21:47.667Z,16.43
2019-06-07T04:24:17.964Z,15.83
2019-06-07T04:26:48.574Z,16.33
2019-06-07T04:29:59.992Z,15.53
2019-06-07T04:31:52.124Z,16.17
2019-06-07T04:34:22.561Z,14.57
2019-06-07T04:36:59.206Z,16.40
2019-06-07T04:39:26.619Z,15.47
2019-06-07T04:41:57.647Z,16.67
2019-06-07T04:44:28.883Z,17.70
2019-06-07T04:47:02.468Z,15.57
2019-06-07T04:49:38.106Z,13.73
2019-06-07T04:52:06.841Z,15.70
2019-06-07T04:54:38.546Z,14.60
2019-06-07T04:57:09.703Z,13.73
2019-06-07T05:00:10.996Z,15.07
2019-06-07T05:02:12.028Z,14.97
2019-06-07T05:04:44.017Z,13.53
2019-06-07T05:07:14.428Z,14.03
2019-06-07T05:09:44.802Z,14.03
2019-06-07T05:12:15.148Z,14.33
2019-06-07T05:14:45.532Z,15.83
2019-06-07T05:17:16.270Z,16.27
2019-06-07T05:19:46.688Z,16.47
2019-06-07T05:22:16.282Z,16.03
2019-06-07T05:24:47.084Z,17.53
2019-06-07T05:27:17.351Z,16.97
2019-06-07T05:30:08.715Z,17.73
2019-06-07T05:32:20.521Z,18.30
2019-06-07T05:34:50.873Z,16.20
2019-06-07T05:37:21.223Z,16.93
2019-06-07T05:39:51.856Z,16.27
2019-06-07T05:42:22.158Z,17.17
2019-06-07T05:44:52.861Z,15.80
2019-06-07T05:47:23.147Z,15.53
2019-06-07T05:49:53.801Z,16.70
2019-06-07T05:52:24.564Z,16.30
2019-06-07T05:54:54.918Z,15.80
2019-06-07T05:57:25.194Z,15.30
2019-06-07T05:59:55.868Z,16.47
2019-06-07T06:02:26.362Z,16.13
2019-06-07T06:04:56.796Z,15.33
2019-06-07T06:07:27.100Z,15.57
2019-06-07T06:09:57.738Z,15.13
2019-06-07T06:12:35.538Z,14.43
2019-06-07T06:15:00.274Z,13.50
2019-06-07T06:17:30.677Z,14.03
2019-06-07T06:20:01.381Z,13.30
2019-06-07T06:22:33.157Z,12.87
2019-06-07T06:30:10.205Z,16.43
2019-06-07T06:32:47.203Z,16.47
2019-06-07T06:35:12.699Z,14.13
2019-06-07T06:37:47.173Z,15.80
2019-06-07T06:40:16.654Z,15.47
2019-06-07T06:42:50.077Z,17.37
2019-06-07T06:45:21.107Z,15.80
2019-06-07T06:47:51.785Z,15.13
2019-06-07T06:50:22.670Z,15.27
2019-06-07T06:52:54.633Z,14.00
2019-06-07T06:55:25.171Z,14.00
2019-06-07T06:57:56.060Z,12.23
2019-06-07T07:01:05.892Z,12.50
2019-06-07T07:06:24.207Z,10.70
2019-06-07T07:08:31.552Z,12.13
2019-06-07T07:11:01.835Z,12.10
2019-06-07T07:13:32.573Z,12.20
2019-06-07T07:16:03.066Z,11.70
2019-06-07T07:18:33.808Z,12.30
2019-06-07T07:21:04.093Z,12.37
2019-06-07T07:23:34.378Z,13.57
2019-06-07T07:26:04.749Z,14.93
2019-06-07T07:28:35.067Z,13.00
2019-06-07T07:31:05.351Z,13.03
2019-06-07T07:36:23.201Z,11.83
2019-06-07T07:38:39.790Z,12.90
2019-06-07T07:41:15.591Z,7.77
2019-06-07T07:43:42.090Z,8.15
2019-06-07T07:46:29.613Z,7.95
2019-06-07T07:48:45.943Z,8.18
2019-06-07T07:51:16.343Z,8.43
2019-06-07T07:53:53.183Z,7.95
2019-06-07T07:56:18.800Z,7.28
2019-06-07T07:58:51.175Z,6.43
2019-06-07T08:01:21.169Z,7.10
2019-06-07T08:03:55.844Z,6.67
2019-06-07T08:06:23.446Z,6.30
2019-06-07T08:08:56.681Z,5.75
2019-06-07T08:11:25.772Z,5.60
2019-06-07T08:13:57.631Z,6.05
2019-06-07T08:16:28.212Z,5.47
2019-06-07T08:19:04.034Z,5.50
2019-06-07T08:21:30.678Z,5.47
2019-06-07T08:24:04.651Z,13.62
2019-06-07T08:26:32.949Z,5.80
2019-06-07T08:29:03.533Z,7.22
2019-06-07T08:31:33.858Z,6.22
2019-06-07T08:34:04.372Z,5.45
2019-06-07T08:36:41.764Z,6.17
2019-06-07T08:39:08.643Z,6.37
2019-06-07T08:41:53.508Z,7.70
2019-06-07T08:44:23.363Z,14.98
2019-06-07T08:46:43.312Z,26.37
2019-06-07T08:49:14.867Z,11.05
2019-06-07T08:51:45.155Z,10.80
2019-06-07T08:54:22.721Z,8.80
2019-06-07T08:56:47.467Z,26.52
2019-06-07T08:59:17.828Z,13.38
2019-06-07T09:01:48.124Z,11.68
2019-06-07T09:04:18.684Z,41.70
2019-06-07T09:07:18.448Z,46.05
2019-06-07T09:09:21.397Z,16.97
2019-06-07T09:11:52.452Z,16.05
2019-06-07T09:14:23.729Z,32.58
2019-06-07T09:16:58.797Z,124.78
2019-06-07T09:19:26.129Z,382.37
2019-06-07T09:21:57.563Z,999.90
2019-06-07T09:24:28.612Z,815.05
2019-06-07T09:27:02.376Z,461.58
2019-06-07T09:29:31.437Z,692.85
2019-06-07T09:32:05.879Z,598.97
2019-06-07T09:34:33.897Z,803.50
2019-06-07T09:37:54.787Z,999.90
2019-06-07T09:39:38.387Z,839.50
2019-06-07T09:42:12.247Z,999.90
2019-06-07T09:44:40.875Z,994.95
2019-06-07T09:47:29.862Z,780.37
2019-06-07T09:49:43.225Z,999.90
2019-06-07T09:52:13.531Z,999.90
2019-06-07T09:55:06.108Z,999.90
2019-06-07T09:57:17.501Z,999.90
2019-06-07T09:59:51.277Z,999.90
2019-06-07T10:02:21.736Z,178.97
2019-06-07T10:04:52.031Z,55.48
2019-06-07T10:07:31.368Z,45.05
2019-06-07T10:10:15.802Z,38.83
2019-06-07T10:12:26.836Z,37.40
2019-06-07T10:14:58.601Z,43.52
2019-06-07T10:17:28.980Z,3.25
2019-06-07T10:20:00.465Z,3.77
2019-06-07T10:22:31.336Z,4.12
2019-06-07T10:25:02.020Z,4.50
2019-06-07T10:27:32.694Z,5.03
2019-06-07T10:30:04.060Z,4.78
2019-06-07T10:32:34.487Z,4.28
2019-06-07T10:35:05.523Z,4.15
2019-06-07T10:37:36.990Z,3.90
2019-06-07T10:40:09.103Z,3.87
2019-06-07T10:42:39.631Z,3.98
2019-06-07T10:45:11.983Z,4.78
2019-06-07T10:47:42.371Z,3.92
2019-06-07T10:50:13.158Z,4.50
2019-06-07T10:52:43.553Z,3.50
2019-06-07T10:55:14.155Z,3.65
2019-06-07T10:57:44.487Z,3.62
2019-06-07T11:00:16.845Z,4.22
2019-06-07T11:02:47.142Z,4.10
2019-06-07T11:05:17.895Z,3.65
2019-06-07T11:07:48.159Z,4.03
2019-06-07T11:10:20.195Z,4.37
2019-06-07T11:12:50.509Z,4.95
2019-06-07T11:15:20.994Z,3.80
2019-06-07T11:17:51.387Z,3.58
2019-06-07T11:20:22.795Z,2.58
2019-06-07T11:22:53.254Z,3.22
2019-06-07T11:25:23.653Z,5.05
2019-06-07T11:27:53.964Z,4.97
2019-06-07T11:30:24.275Z,4.53
2019-06-07T11:32:54.584Z,3.40
2019-06-07T11:35:25.220Z,6.05
2019-06-07T11:37:55.700Z,3.50
2019-06-07T11:40:34.894Z,3.98
2019-06-07T11:42:58.567Z,3.95
2019-06-07T11:45:33.936Z,3.35
2019-06-07T11:48:04.554Z,3.15
2019-06-07T11:50:34.821Z,4.25
2019-06-07T11:53:06.566Z,3.20
2019-06-07T11:55:37.257Z,3.70
2019-06-07T11:58:11.685Z,3.75
2019-06-07T12:00:39.889Z,3.72
2019-06-07T12:03:11.570Z,3.95
2019-06-07T12:05:42.300Z,4.33
2019-06-07T12:08:13.999Z,4.22
2019-06-07T12:10:44.420Z,4.10
2019-06-07T12:13:15.501Z,6.05
2019-06-07T12:15:49.141Z,4.37
2019-06-07T12:18:19.769Z,3.85
2019-06-07T12:20:50.157Z,3.42
2019-06-07T12:23:20.786Z,3.77
2019-06-07T12:25:51.186Z,3.60
2019-06-07T12:28:21.446Z,4.42
2019-06-07T12:30:55.090Z,6.30
2019-06-07T12:33:24.215Z,4.78
2019-06-07T12:35:54.825Z,4.42
2019-06-07T12:38:25.352Z,3.83
2019-06-07T12:40:57.907Z,6.08
2019-06-07T12:43:28.438Z,4.15
2019-06-07T12:45:58.916Z,4.47
2019-06-07T12:48:29.584Z,4.58
2019-06-07T12:50:59.893Z,5.20
2019-06-07T12:53:30.168Z,5.95
2019-06-07T12:56:00.948Z,5.33
2019-06-07T12:58:36.265Z,4.67
2019-06-07T13:01:04.243Z,5.30
2019-06-07T13:03:35.039Z,5.08
2019-06-07T13:06:05.706Z,5.00
2019-06-07T13:08:36.005Z,5.05
2019-06-07T13:11:16.175Z,5.05
2019-06-07T13:13:38.795Z,4.55
2019-06-07T13:16:09.591Z,5.28
2019-06-07T13:18:40.007Z,5.50
2019-06-07T13:21:10.275Z,5.37
2019-06-07T13:23:44.263Z,4.72
2019-06-07T13:26:13.149Z,5.08
2019-06-07T13:28:43.413Z,4.17
2019-06-07T13:31:14.094Z,4.67
2019-06-07T13:33:44.924Z,6.87
2019-06-07T13:36:16.169Z,4.62
2019-06-07T13:38:46.563Z,4.90
2019-06-07T13:41:30.214Z,4.28
2019-06-07T13:43:51.587Z,4.53
2019-06-07T13:46:23.021Z,5.15
2019-06-07T13:48:53.599Z,4.42
2019-06-07T13:51:25.150Z,4.67
2019-06-07T13:53:56.455Z,4.20
2019-06-07T13:56:28.247Z,4.80
2019-06-07T13:58:58.699Z,4.80
2019-06-07T14:01:30.466Z,5.58
2019-06-07T14:04:00.765Z,5.30
2019-06-07T14:06:32.201Z,4.90
2019-06-07T14:09:02.881Z,5.30
2019-06-07T14:11:49.589Z,6.05
2019-06-07T14:14:06.571Z,5.35
2019-06-07T14:16:37.332Z,4.70
2019-06-07T14:19:08.784Z,4.87
2019-06-07T14:21:39.447Z,6.55
2019-06-07T14:24:09.712Z,6.30
2019-06-07T14:26:42.957Z,6.05
2019-06-07T14:29:13.527Z,5.37
2019-06-07T14:31:43.838Z,5.70
2019-06-07T14:34:14.128Z,5.85
2019-06-07T14:36:45.002Z,5.05
2019-06-07T14:39:15.673Z,5.10
2019-06-07T14:41:46.184Z,5.97
2019-06-07T14:44:16.776Z,4.83
2019-06-07T14:46:47.535Z,6.85
2019-06-07T14:49:17.887Z,6.25
2019-06-07T14:51:48.219Z,5.40
2019-06-07T14:54:18.492Z,5.55
2019-06-07T14:56:49.170Z,4.65
2019-06-07T14:59:19.585Z,4.15
2019-06-07T15:01:49.948Z,4.75
2019-06-07T15:04:20.650Z,5.05
2019-06-07T15:06:51.358Z,4.62
2019-06-07T15:09:21.619Z,5.53
2019-06-07T15:11:52.037Z,5.00
2019-06-07T15:14:22.388Z,4.58
2019-06-07T15:16:52.901Z,4.80
2019-06-07T15:19:24.249Z,4.92
2019-06-07T15:21:54.861Z,4.30
2019-06-07T15:24:25.536Z,4.28
2019-06-07T15:26:56.389Z,4.05
2019-06-07T15:29:27.484Z,4.33
2019-06-07T15:31:58.232Z,4.60
2019-06-07T15:34:30.429Z,3.83
2019-06-07T15:37:01.005Z,4.40
2019-06-07T15:39:32.577Z,4.42
2019-06-07T15:42:03.237Z,4.58
2019-06-07T15:44:33.665Z,4.80
2019-06-07T15:47:04.011Z,4.33
2019-06-07T15:49:36.070Z,4.58
2019-06-07T15:52:06.467Z,4.53
2019-06-07T15:54:37.112Z,5.62
2019-06-07T15:57:07.402Z,4.80
2019-06-07T15:59:37.760Z,6.53
2019-06-07T16:02:08.521Z,5.33
2019-06-07T16:04:39.765Z,6.08
2019-06-07T16:07:10.109Z,5.03
2019-06-07T16:09:40.765Z,5.17
2019-06-07T16:12:11.166Z,5.67
2019-06-07T16:14:41.482Z,4.58
2019-06-07T16:17:12.080Z,5.05
2019-06-07T16:19:45.998Z,4.20
2019-06-07T16:22:14.666Z,4.65
2019-06-07T16:24:46.330Z,7.03
2019-06-07T16:27:16.600Z,7.15
2019-06-07T16:29:47.007Z,7.53
2019-06-07T16:32:17.298Z,7.47
2019-06-07T16:34:47.603Z,5.65
2019-06-07T16:37:18.317Z,7.03
2019-06-07T16:39:48.821Z,6.22
2019-06-07T16:42:19.083Z,9.68
2019-06-07T16:44:49.816Z,7.65
2019-06-07T16:47:20.586Z,7.90
2019-06-07T16:49:50.952Z,9.73
2019-06-07T16:52:21.685Z,10.43
2019-06-07T16:54:52.246Z,11.15
2019-06-07T16:57:22.590Z,11.93
2019-06-07T16:59:53.048Z,14.07
2019-06-07T17:02:23.805Z,18.02
2019-06-07T17:04:54.073Z,8.50
2019-06-07T17:07:24.403Z,6.37
2019-06-07T17:09:55.186Z,5.05
2019-06-07T17:12:25.452Z,6.08
2019-06-07T17:14:55.794Z,7.62
2019-06-07T17:17:26.604Z,7.15
2019-06-07T17:19:58.215Z,12.28
2019-06-07T17:22:28.512Z,8.60
2019-06-07T17:24:58.916Z,10.72
2019-06-07T17:27:29.582Z,9.55
2019-06-07T17:30:00.012Z,7.30
2019-06-07T17:32:30.325Z,6.58
2019-06-07T17:35:00.626Z,9.08
2019-06-07T17:37:31.340Z,7.70
2019-06-07T17:40:01.822Z,11.20
2019-06-07T17:42:32.135Z,9.95
2019-06-07T17:45:04.177Z,7.87
2019-06-07T17:47:34.757Z,8.50
2019-06-07T17:50:05.962Z,9.50
2019-06-07T17:52:36.476Z,8.90
2019-06-07T17:55:07.213Z,8.83
2019-06-07T17:57:37.512Z,8.05
2019-06-07T18:00:27.804Z,7.78
2019-06-07T18:02:42.385Z,8.43
2019-06-07T18:05:13.701Z,9.85
2019-06-07T18:07:47.741Z,12.10
2019-06-07T18:10:34.449Z,9.90
2019-06-07T18:13:05.417Z,9.68
2019-06-07T18:15:41.082Z,11.33
2019-06-07T18:18:12.062Z,8.08
2019-06-07T18:20:41.184Z,8.43
2019-06-07T18:23:12.021Z,6.60
2019-06-07T18:25:42.334Z,7.60
2019-06-07T18:28:14.035Z,7.30
2019-06-07T18:30:44.711Z,7.15
2019-06-07T18:33:15.275Z,9.05
2019-06-07T18:35:46.970Z,8.88
2019-06-07T18:38:17.521Z,10.35
2019-06-07T18:40:49.009Z,10.00
2019-06-07T18:43:19.901Z,7.40
2019-06-07T18:45:51.395Z,7.67
2019-06-07T18:48:21.920Z,8.13
2019-06-07T18:50:52.664Z,6.90
2019-06-07T18:53:23.028Z,6.40
2019-06-07T18:55:54.025Z,7.47
2019-06-07T18:58:25.030Z,7.03
2019-06-07T19:00:55.692Z,7.33
2019-06-07T19:03:25.965Z,6.63
2019-06-07T19:05:56.602Z,8.47
2019-06-07T19:08:26.892Z,8.23
2019-06-07T19:10:57.509Z,6.60
2019-06-07T19:13:28.022Z,7.20
2019-06-07T19:15:59.632Z,8.37
2019-06-07T19:18:30.093Z,8.37
2019-06-07T19:21:00.701Z,8.67
2019-06-07T19:23:31.083Z,8.77
2019-06-07T19:26:01.705Z,8.57
2019-06-07T19:28:32.410Z,8.93
2019-06-07T19:31:02.691Z,6.53
2019-06-07T19:33:46.245Z,7.30
2019-06-07T19:36:05.711Z,8.40
2019-06-07T19:38:36.017Z,8.13
2019-06-07T19:41:17.992Z,7.17
2019-06-07T19:43:38.679Z,7.70
2019-06-07T19:46:09.086Z,7.43
2019-06-07T19:48:39.467Z,7.07
2019-06-07T19:51:09.836Z,7.50
2019-06-07T19:53:40.452Z,7.47
2019-06-07T19:56:11.115Z,7.10
2019-06-07T19:58:41.430Z,7.70
2019-06-07T20:01:11.886Z,8.57
2019-06-07T20:03:42.462Z,7.83
2019-06-07T20:06:12.727Z,7.60
2019-06-07T20:08:43.048Z,7.97
2019-06-07T20:11:13.632Z,8.73
2019-06-07T20:13:44.046Z,7.73
2019-06-07T20:16:14.777Z,8.50
2019-06-07T20:18:45.047Z,7.30
2019-06-07T20:21:15.357Z,7.97
2019-06-07T20:23:46.027Z,7.23
2019-06-07T20:26:16.418Z,8.27
2019-06-07T20:28:46.772Z,8.43
2019-06-07T20:31:17.543Z,10.17
2019-06-07T20:33:47.886Z,9.23
2019-06-07T20:36:18.225Z,10.07
2019-06-07T20:38:48.892Z,6.80
2019-06-07T20:41:19.620Z,6.27
2019-06-07T20:43:49.969Z,6.73
2019-06-07T20:46:20.242Z,8.07
2019-06-07T20:48:50.544Z,7.00
2019-06-07T20:51:21.219Z,7.00
2019-06-07T20:53:51.881Z,6.77
2019-06-07T20:56:24.564Z,6.73
2019-06-07T20:58:54.622Z,6.63
2019-06-07T21:01:26.329Z,7.13
2019-06-07T21:03:56.635Z,6.50
2019-06-07T21:06:27.313Z,7.40
2019-06-07T21:08:59.254Z,7.30
2019-06-07T21:11:29.648Z,6.37
2019-06-07T21:14:00.055Z,7.10
2019-06-07T21:16:30.408Z,6.37
2019-06-07T21:19:00.756Z,7.77
2019-06-07T21:21:31.032Z,8.00
2019-06-07T21:24:02.545Z,6.33
2019-06-07T21:26:32.896Z,6.63
2019-06-07T21:29:03.491Z,6.73
2019-06-07T21:31:34.031Z,6.67
2019-06-07T21:34:07.658Z,7.27
2019-06-07T21:36:36.747Z,6.80
2019-06-07T21:39:08.428Z,6.57
2019-06-07T21:41:38.812Z,6.00
2019-06-07T21:44:10.359Z,5.67
2019-06-07T21:46:41.843Z,5.37
2019-06-07T21:49:12.848Z,6.10
2019-06-07T21:51:43.681Z,6.27
2019-06-07T21:54:14.887Z,5.93
2019-06-07T21:56:45.370Z,5.80
2019-06-07T21:59:16.083Z,4.37
2019-06-07T22:01:46.840Z,5.17
2019-06-07T22:04:17.107Z,4.93
2019-06-07T22:06:47.842Z,4.87
2019-06-07T22:09:18.491Z,6.37
2019-06-07T22:11:48.779Z,5.57
2019-06-07T22:14:19.164Z,5.37
2019-06-07T22:16:49.774Z,5.67
2019-06-07T22:19:20.081Z,5.70
2019-06-07T22:22:02.151Z,5.30
2019-06-07T22:24:22.816Z,5.67
2019-06-07T22:26:53.495Z,4.77
2019-06-07T22:29:24.214Z,5.53
2019-06-07T22:31:54.483Z,5.30
2019-06-07T22:34:24.957Z,6.33
2019-06-07T22:36:55.682Z,5.07
2019-06-07T22:39:25.996Z,5.50
2019-06-07T22:41:56.317Z,4.70
2019-06-07T22:44:26.772Z,4.83
2019-06-07T22:46:57.068Z,4.37
2019-06-07T22:49:27.381Z,4.30
2019-06-07T22:52:08.312Z,5.40
2019-06-07T22:54:30.229Z,4.97
2019-06-07T22:57:05.726Z,5.00
2019-06-07T22:59:36.047Z,4.83
2019-06-07T23:02:06.340Z,4.87
2019-06-07T23:04:37.088Z,4.30
2019-06-07T23:07:08.734Z,4.73
2019-06-07T23:09:39.159Z,4.20
2019-06-07T23:12:11.040Z,4.90
2019-06-07T23:14:41.431Z,4.67
2019-06-07T23:17:11.769Z,5.23
2019-06-07T23:19:42.391Z,4.97
2019-06-07T23:22:13.798Z,5.43
2019-06-07T23:24:44.196Z,4.73
2019-06-07T23:27:14.525Z,5.03
2019-06-07T23:29:44.803Z,5.50
2019-06-07T23:32:16.712Z,5.40
2019-06-07T23:34:47.231Z,6.50
2019-06-07T23:37:17.523Z,6.43
2019-06-07T23:39:48.276Z,6.23
2019-06-07T23:42:19.743Z,5.83
2019-06-07T23:44:50.092Z,6.80
2019-06-07T23:47:22.344Z,5.10
2019-06-07T23:49:53.142Z,5.60
2019-06-07T23:52:23.433Z,5.27
2019-06-07T23:54:53.881Z,5.13
2019-06-07T23:57:24.175Z,4.97
2019-06-07T23:59:55.849Z,5.00
